Time;durP1;ratioP1;P1;durP2;ratioP2;P2;SDS_P1;SDS_P2;PMS_P1;PMS_P2;Temp;Humidity;BMP_temperature;BMP_pressure;BME280_temperature;BME280_humidity;BME280_pressure;Samples;Min_cycle;Max_cycle;Signal;HPM_P1;HPM_P2
2022/09/08 00:00:38;;;;;;;14.32;1.70;;;13.40;99.90;;;;;;5013971;28;20046;-79
2022/09/08 00:03:29;;;;;;;12.40;1.77;;;14.60;99.90;;;;;;4997175;28;20049;-81
2022/09/08 00:06:05;;;;;;;15.05;1.70;;;14.80;99.90;;;;;;5014645;28;20053;-80
2022/09/08 00:08:34;;;;;;;22.50;2.47;;;14.90;99.90;;;;;;4980223;28;20061;-80
2022/09/08 00:11:03;;;;;;;12.60;2.13;;;14.90;99.90;;;;;;5014611;28;20573;-81
2022/09/08 00:13:34;;;;;;;11.75;1.88;;;14.90;99.90;;;;;;5013517;28;20487;-80
2022/09/08 00:16:04;;;;;;;7.20;1.45;;;14.90;99.90;;;;;;5014562;28;20068;-81
2022/09/08 00:18:39;;;;;;;15.20;2.42;;;14.90;99.90;;;;;;5014475;28;20373;-79
2022/09/08 00:21:07;;;;;;;11.00;1.70;;;14.90;99.90;;;;;;5013271;28;20053;-81
2022/09/08 00:23:35;;;;;;;;;;;14.90;99.90;;;;;;5016664;28;20049;-78
2022/09/08 00:26:03;;;;;;;12.98;1.50;;;15.00;99.90;;;;;;5018419;28;19925;-78
2022/09/08 00:28:32;;;;;;;10.40;1.33;;;15.00;99.90;;;;;;5016843;28;20384;-78
2022/09/08 00:31:00;;;;;;;4.97;1.33;;;15.00;99.90;;;;;;5001028;28;20476;-78
2022/09/08 00:33:29;;;;;;;8.82;1.33;;;15.00;99.90;;;;;;4999482;28;20045;-78
2022/09/08 00:35:57;;;;;;;7.20;1.38;;;15.00;99.90;;;;;;5017772;28;20050;-77
2022/09/08 00:38:26;;;;;;;10.07;1.30;;;15.00;99.90;;;;;;5001032;28;20049;-77
2022/09/08 00:40:53;;;;;;;6.25;1.23;;;15.00;99.90;;;;;;5016429;28;20049;-79
2022/09/08 00:43:36;;;;;;;5.20;1.15;;;15.00;99.90;;;;;;5017654;28;20046;-80
2022/09/08 00:46:12;;;;;;;4.93;1.02;;;15.00;99.90;;;;;;5017785;28;20050;-80
2022/09/08 00:48:47;;;;;;;11.55;1.08;;;15.00;99.90;;;;;;4999511;28;20056;-78
2022/09/08 00:51:16;;;;;;;7.65;1.13;;;15.00;99.90;;;;;;5000479;28;20056;-80
2022/09/08 00:53:47;;;;;;;12.27;1.30;;;15.00;99.90;;;;;;4999577;28;20368;-80
2022/09/08 00:56:16;;;;;;;8.52;1.30;;;15.00;99.90;;;;;;5000261;28;20050;-78
2022/09/08 00:58:44;;;;;;;7.97;1.05;;;15.00;99.90;;;;;;5000125;28;20058;-78
2022/09/08 01:01:11;;;;;;;10.43;1.30;;;15.00;99.90;;;;;;5016285;28;20050;-80
2022/09/08 01:03:41;;;;;;;7.00;1.33;;;15.00;99.90;;;;;;5017602;28;20350;-79
2022/09/08 01:06:17;;;;;;;9.93;1.23;;;15.00;99.90;;;;;;4984130;28;20511;-79
2022/09/08 01:14:45;;;;;;;5.97;1.10;;;15.00;99.90;;;;;;4999262;28;20061;-78
2022/09/08 01:17:24;;;;;;;7.15;1.00;;;15.00;99.90;;;;;;4999840;28;20050;-77
2022/09/08 01:19:53;;;;;;;5.72;0.90;;;15.00;99.90;;;;;;5000265;28;20468;-79
2022/09/08 01:22:44;;;;;;;5.70;0.82;;;14.90;99.90;;;;;;5015926;28;20042;-78
2022/09/08 01:25:48;;;;;;;7.30;0.80;;;14.90;99.90;;;;;;4999793;28;20046;-78
2022/09/08 01:28:34;;;;;;;4.70;0.70;;;14.90;99.90;;;;;;5015988;28;20042;-78
2022/09/08 01:31:03;;;;;;;3.55;0.80;;;14.80;99.90;;;;;;5017068;28;20500;-78
2022/09/08 01:33:31;;;;;;;6.07;0.88;;;14.80;99.90;;;;;;4998628;28;20042;-78
2022/09/08 01:36:05;;;;;;;3.67;0.60;;;14.70;99.90;;;;;;4982316;28;20054;-79
2022/09/08 01:38:33;;;;;;;3.67;0.70;;;14.70;99.90;;;;;;4999659;28;20046;-78
2022/09/08 01:41:01;;;;;;;;;;;14.70;99.90;;;;;;5007403;28;20060;-77
2022/09/08 01:43:28;;;;;;;4.43;0.70;;;14.60;99.90;;;;;;5036752;28;19984;-79
2022/09/08 01:45:56;;;;;;;5.50;0.65;;;14.70;99.90;;;;;;5035487;28;20049;-77
2022/09/08 01:48:25;;;;;;;2.22;0.70;;;14.70;99.90;;;;;;5035079;28;20053;-78
2022/09/08 01:50:59;;;;;;;5.63;0.73;;;14.60;99.90;;;;;;5036168;28;20046;-75
2022/09/08 01:53:27;;;;;;;7.90;0.85;;;14.60;99.90;;;;;;5035504;28;20049;-78
2022/09/08 01:55:55;;;;;;;5.72;0.70;;;14.60;99.90;;;;;;5036399;28;20045;-78
2022/09/08 01:58:23;;;;;;;4.03;0.75;;;14.60;99.90;;;;;;5036397;28;20056;-76
2022/09/08 02:00:51;;;;;;;4.88;0.70;;;14.50;99.90;;;;;;5035005;28;20053;-78
2022/09/08 02:03:19;;;;;;;6.15;0.95;;;14.50;99.90;;;;;;5035911;28;20060;-77
2022/09/08 02:05:46;;;;;;;6.45;0.73;;;14.50;99.90;;;;;;5036188;28;20467;-78
2022/09/08 02:08:14;;;;;;;3.75;0.65;;;14.50;99.90;;;;;;5034212;28;20048;-78
2022/09/08 02:10:42;;;;;;;5.78;0.90;;;14.50;99.90;;;;;;5036111;28;20056;-78
2022/09/08 02:13:09;;;;;;;6.07;0.98;;;14.40;99.90;;;;;;5035797;28;20049;-78
2022/09/08 02:15:39;;;;;;;6.57;0.70;;;14.40;99.90;;;;;;5034869;28;20041;-78
2022/09/08 02:18:06;;;;;;;5.25;0.90;;;14.30;99.90;;;;;;5035722;28;20049;-78
2022/09/08 02:20:34;;;;;;;7.67;0.77;;;14.30;99.90;;;;;;5034694;28;20053;-77
2022/09/08 02:23:02;;;;;;;6.70;0.82;;;14.20;99.90;;;;;;5036040;28;20621;-77
2022/09/08 02:25:29;;;;;;;6.85;0.73;;;14.20;99.90;;;;;;5035705;28;20045;-78
2022/09/08 02:27:57;;;;;;;6.35;0.68;;;14.20;99.90;;;;;;5034414;28;20494;-76
2022/09/08 02:30:24;;;;;;;4.93;0.75;;;14.10;99.90;;;;;;5034820;28;20041;-76
2022/09/08 02:32:52;;;;;;;4.15;0.82;;;14.10;99.90;;;;;;5035467;28;20071;-77
2022/09/08 02:35:19;;;;;;;8.63;0.90;;;14.10;99.90;;;;;;5034271;28;20034;-78
2022/09/08 02:37:47;;;;;;;7.40;1.00;;;14.10;99.90;;;;;;5035519;28;20045;-76
2022/09/08 02:40:14;;;;;;;3.80;0.63;;;14.10;99.90;;;;;;5034309;28;20468;-77
2022/09/08 02:42:44;;;;;;;5.63;0.90;;;14.10;99.90;;;;;;5015280;28;20054;-76
2022/09/08 02:45:12;;;;;;;5.05;1.20;;;14.10;99.90;;;;;;5015731;28;20046;-76
2022/09/08 02:47:39;;;;;;;9.52;1.20;;;14.10;99.90;;;;;;4997413;28;20050;-78
2022/09/08 02:50:07;;;;;;;8.63;1.33;;;14.10;99.90;;;;;;5015297;28;20046;-77
2022/09/08 02:52:34;;;;;;;5.53;1.10;;;14.20;99.90;;;;;;5015282;28;20041;-78
2022/09/08 02:55:02;;;;;;;5.80;1.20;;;14.20;99.90;;;;;;4997020;28;20476;-78
2022/09/08 02:57:30;;;;;;;14.13;1.48;;;14.20;99.90;;;;;;5015169;28;20057;-78
2022/09/08 02:59:58;;;;;;;4.82;0.90;;;14.20;99.90;;;;;;5015564;28;20357;-78
2022/09/08 03:02:25;;;;;;;9.43;1.30;;;14.20;99.90;;;;;;5015430;28;20471;-77
2022/09/08 03:04:53;;;;;;;9.00;1.17;;;14.20;99.90;;;;;;5015309;28;20053;-77
2022/09/08 03:07:21;;;;;;;10.95;1.00;;;14.10;99.90;;;;;;5014251;28;20503;-77
2022/09/08 03:09:51;;;;;;;10.00;1.25;;;14.10;99.90;;;;;;4998024;28;20054;-77
2022/09/08 03:12:19;;;;;;;4.28;0.80;;;14.10;99.90;;;;;;5015518;28;20050;-77
2022/09/08 03:14:46;;;;;;;6.28;1.00;;;14.00;99.90;;;;;;5014182;28;20045;-78
2022/09/08 03:17:14;;;;;;;5.32;1.00;;;14.00;99.90;;;;;;5015054;28;20453;-78
2022/09/08 03:19:41;;;;;;;5.90;1.17;;;14.00;99.90;;;;;;4998133;28;20368;-77
2022/09/08 03:22:09;;;;;;;7.78;1.35;;;13.90;99.90;;;;;;5014029;28;20052;-77
2022/09/08 03:24:36;;;;;;;8.73;1.33;;;13.80;99.90;;;;;;4998353;28;20057;-78
2022/09/08 03:27:04;;;;;;;9.15;1.70;;;13.80;99.90;;;;;;5014165;28;20053;-78
2022/09/08 03:29:32;;;;;;;13.85;1.45;;;13.80;99.90;;;;;;4997954;28;20400;-78
2022/09/08 03:32:00;;;;;;;8.65;1.38;;;13.70;99.90;;;;;;5014939;28;20046;-78
2022/09/08 03:34:27;;;;;;;10.23;1.58;;;13.70;99.90;;;;;;5013831;28;20046;-78
2022/09/08 03:36:55;;;;;;;13.27;1.67;;;13.70;99.90;;;;;;4997791;28;20042;-78
2022/09/08 03:39:23;;;;;;;11.55;1.88;;;13.70;99.90;;;;;;4998599;28;20045;-78
2022/09/08 03:41:50;;;;;;;7.45;1.60;;;13.70;99.90;;;;;;5013756;28;20054;-78
2022/09/08 03:44:18;;;;;;;13.30;1.65;;;13.70;99.90;;;;;;5015252;28;20054;-78
2022/09/08 03:46:45;;;;;;;7.35;1.58;;;13.00;99.90;;;;;;5013761;28;20049;-78
2022/09/08 03:49:13;;;;;;;10.43;2.03;;;13.60;99.90;;;;;;5014617;28;20057;-78
2022/09/08 03:51:40;;;;;;;9.73;1.80;;;13.60;99.90;;;;;;5014656;28;20050;-77
2022/09/08 03:56:55;;;;;;;11.38;2.28;;;13.60;99.90;;;;;;5014799;28;20046;-77
2022/09/08 03:59:23;;;;;;;12.70;1.92;;;13.60;99.90;;;;;;5017882;28;20519;-77
2022/09/08 04:01:53;;;;;;;10.65;1.83;;;13.60;99.90;;;;;;5017290;28;20045;-78
2022/09/08 04:04:23;;;;;;;14.98;2.38;;;13.60;99.90;;;;;;5018843;28;20046;-77
2022/09/08 04:06:52;;;;;;;10.52;2.00;;;13.60;99.90;;;;;;5017270;28;20046;-77
2022/09/08 04:09:19;;;;;;;10.07;1.88;;;13.80;99.90;;;;;;4985138;28;20042;-78
2022/09/08 04:11:48;;;;;;;10.30;2.17;;;13.60;99.90;;;;;;5018341;28;20050;-78
2022/09/08 04:14:16;;;;;;;11.52;2.25;;;13.60;99.90;;;;;;5017203;28;20049;-78
2022/09/08 04:16:44;;;;;;;13.50;1.98;;;13.60;99.90;;;;;;5018159;28;20038;-78
2022/09/08 04:19:13;;;;;;;13.88;2.35;;;13.70;99.90;;;;;;5018315;28;20049;-77
2022/09/08 04:21:40;;;;;;;13.98;2.17;;;13.70;99.90;;;;;;5017170;28;20037;-78
2022/09/08 04:24:08;;;;;;;17.67;2.40;;;13.80;99.90;;;;;;5018183;28;20053;-77
2022/09/08 04:26:35;;;;;;;7.82;1.88;;;13.80;99.90;;;;;;5018195;28;20058;-76
2022/09/08 04:29:03;;;;;;;17.33;2.35;;;13.80;99.90;;;;;;5017165;28;20361;-78
2022/09/08 04:31:31;;;;;;;17.80;2.90;;;13.80;99.90;;;;;;5001227;28;20050;-78
2022/09/08 04:33:58;;;;;;;14.02;2.30;;;13.80;99.90;;;;;;5016985;28;20049;-77
2022/09/08 04:36:27;;;;;;;9.10;1.95;;;13.90;99.90;;;;;;5000779;28;20046;-79
2022/09/08 04:38:56;;;;;;;9.98;2.03;;;13.90;99.90;;;;;;5017878;28;20057;-78
2022/09/08 04:41:25;;;;;;;9.27;1.90;;;13.90;99.90;;;;;;5013746;28;20052;-78
2022/09/08 04:43:54;;;;;;;14.90;2.40;;;13.80;99.90;;;;;;5037449;28;20448;-77
2022/09/08 04:46:22;;;;;;;15.05;2.13;;;13.80;99.90;;;;;;5037545;28;20050;-77
2022/09/08 04:48:49;;;;;;;16.77;2.40;;;13.80;99.90;;;;;;5035322;28;20060;-77
2022/09/08 04:51:18;;;;;;;9.85;2.58;;;13.80;99.90;;;;;;5037375;28;20380;-78
2022/09/08 04:53:47;;;;;;;15.57;2.42;;;13.70;99.90;;;;;;5035527;28;20049;-78
2022/09/08 04:56:15;;;;;;;15.70;2.60;;;13.70;99.90;;;;;;5037873;28;20044;-78
2022/09/08 04:58:43;;;;;;;16.45;2.45;;;13.90;99.90;;;;;;5037655;28;20371;-77
2022/09/08 05:01:18;;;;;;;10.82;2.58;;;13.60;99.90;;;;;;5036543;28;20064;-77
2022/09/08 05:03:51;;;;;;;23.85;3.38;;;13.60;99.90;;;;;;5036427;28;20372;-79
2022/09/08 05:06:25;;;;;;;20.25;3.10;;;13.50;99.90;;;;;;5036468;28;20053;-78
2022/09/08 05:10:03;;;;;;;;;;;;;;;;;;;;;
2022/09/08 05:13:15;;;;;;;14.07;2.95;;;13.40;99.90;;;;;;5037543;28;20045;-77
2022/09/08 05:16:14;;;;;;;25.30;3.15;;;12.50;99.90;;;;;;5035867;28;20046;-77
2022/09/08 05:18:50;;;;;;;19.65;3.40;;;14.90;99.90;;;;;;5036660;28;20049;-77
2022/09/08 05:21:19;;;;;;;17.38;4.07;;;12.20;99.90;;;;;;5034761;28;20061;-76
2022/09/08 05:23:52;;;;;;;14.55;3.40;;;13.40;99.90;;;;;;5037601;28;20058;-77
2022/09/08 05:26:21;;;;;;;25.90;3.83;;;13.20;99.90;;;;;;5036852;28;20056;-77
2022/09/08 05:28:49;;;;;;;21.90;3.70;;;13.20;99.90;;;;;;5034668;28;20368;-76
2022/09/08 05:31:19;;;;;;;21.33;3.67;;;13.30;99.90;;;;;;5035577;28;20391;-78
2022/09/08 05:33:47;;;;;;;23.80;3.42;;;13.30;99.90;;;;;;5018897;28;20060;-78
2022/09/08 05:36:16;;;;;;;;;;;13.10;99.90;;;;;;5037410;28;20052;-78
2022/09/08 05:38:44;;;;;;;21.75;4.60;;;13.10;99.90;;;;;;5019199;28;20378;-77
2022/09/08 05:41:13;;;;;;;;;;;13.20;99.90;;;;;;5028183;28;20045;-79
2022/09/08 05:43:41;;;;;;;18.58;4.78;;;13.20;99.90;;;;;;5015921;28;20351;-78
2022/09/08 05:46:14;;;;;;;14.85;4.72;;;13.20;99.90;;;;;;5015624;28;20057;-76
2022/09/08 05:48:46;;;;;;;20.38;4.85;;;13.30;99.90;;;;;;4998434;28;20376;-78
2022/09/08 05:51:18;;;;;;;21.58;5.25;;;13.20;99.90;;;;;;5016871;28;20050;-76
2022/09/08 05:53:47;;;;;;;20.40;5.07;;;13.20;99.90;;;;;;5015478;28;20484;-77
2022/09/08 05:56:18;;;;;;;18.67;5.13;;;13.40;99.90;;;;;;4999430;28;20489;-78
2022/09/08 05:59:00;;;;;;;18.58;5.35;;;13.40;99.90;;;;;;5016969;28;20045;-78
2022/09/08 06:01:41;;;;;;;22.33;5.15;;;13.40;99.90;;;;;;4998212;28;20471;-77
2022/09/08 06:04:12;;;;;;;20.60;5.85;;;13.40;99.90;;;;;;5016383;28;20064;-78
2022/09/08 06:06:40;;;;;;;28.10;6.35;;;13.40;99.90;;;;;;5015312;28;20054;-78
2022/09/08 06:09:34;;;;;;;39.10;6.57;;;13.50;99.90;;;;;;4999454;28;20049;-78
2022/09/08 06:12:15;;;;;;;24.33;7.38;;;13.60;99.90;;;;;;5001155;28;20045;-78
2022/09/08 06:14:47;;;;;;;26.05;7.15;;;13.70;99.90;;;;;;5015005;28;20495;-78
2022/09/08 06:18:01;;;;;;;22.98;6.63;;;13.80;99.90;;;;;;5015895;28;20057;-78
2022/09/08 06:20:41;;;;;;;25.58;7.30;;;13.50;99.90;;;;;;4998510;28;20085;-78
2022/09/08 06:24:16;;;;;;;;;;;;;;;;;;;;;
2022/09/08 06:28:16;;;;;;;;;;;;;;;;;;;;;
2022/09/08 06:32:22;;;;;;;32.20;11.02;;;15.90;99.90;;;;;;4916376;29;20047;-79
2022/09/08 06:40:36;;;;;;;28.83;9.15;;;14.70;99.90;;;;;;4891430;29;20057;-80
2022/09/08 06:44:16;;;;;;;29.58;7.47;;;14.10;99.90;;;;;;4893491;29;20066;-84
2022/09/08 06:47:04;;;;;;;27.42;6.90;;;14.70;99.90;;;;;;4920557;29;20060;-80
2022/09/08 06:49:36;;;;;;;30.35;6.38;;;14.70;99.90;;;;;;4920674;29;20074;-78
2022/09/08 06:52:19;;;;;;;26.20;6.05;;;14.80;99.90;;;;;;4936262;29;20062;-79
2022/09/08 06:54:54;;;;;;;30.20;6.30;;;14.70;99.90;;;;;;4919027;29;20502;-77
2022/09/08 06:57:47;;;;;;;;;;;14.80;99.90;;;;;;4946234;28;20046;-81
2022/09/08 07:00:47;;;;;;;20.65;4.43;;;14.70;99.90;;;;;;5014307;28;20268;-77
2022/09/08 07:03:35;;;;;;;18.83;3.80;;;14.80;99.90;;;;;;5015359;28;20389;-79
2022/09/08 07:06:15;;;;;;;15.10;2.90;;;14.80;99.90;;;;;;4997734;28;20061;-81
2022/09/08 07:09:41;;;;;;;18.10;3.05;;;16.20;99.90;;;;;;5014965;28;20042;-77
2022/09/08 07:12:18;;;;;;;16.98;3.00;;;14.80;99.90;;;;;;4998434;28;20057;-78
2022/09/08 07:15:35;;;;;;;15.90;2.60;;;14.80;99.90;;;;;;4984371;28;20046;-77
2022/09/08 07:18:39;;;;;;;17.13;3.38;;;13.30;99.90;;;;;;5014875;28;20046;-78
2022/09/08 07:21:51;;;;;;;18.33;3.33;;;14.80;99.90;;;;;;5014267;28;20461;-78
2022/09/08 07:24:27;;;;;;;14.57;3.72;;;16.40;99.90;;;;;;4997956;28;20045;-76
2022/09/08 07:26:58;;;;;;;22.85;7.75;;;14.80;99.90;;;;;;5013305;28;20354;-74
2022/09/08 07:29:45;;;;;;;26.83;6.13;;;14.90;99.90;;;;;;5030230;28;20052;-76
2022/09/08 07:32:27;;;;;;;24.55;4.55;;;14.90;99.90;;;;;;5027780;28;20050;-75
2022/09/08 07:35:01;;;;;;;20.98;4.82;;;14.90;99.90;;;;;;5017237;28;20034;-78
2022/09/08 07:37:42;;;;;;;21.88;5.45;;;15.00;99.90;;;;;;5001410;28;20065;-77
2022/09/08 07:40:19;;;;;;;18.60;4.85;;;14.40;99.90;;;;;;5001079;28;20042;-78
2022/09/08 07:42:57;;;;;;;24.67;5.90;;;15.10;99.90;;;;;;5035472;28;20053;-76
2022/09/08 07:45:39;;;;;;;34.95;9.98;;;15.10;99.90;;;;;;5039047;28;20056;-79
2022/09/08 07:48:24;;;;;;;20.83;4.20;;;15.20;99.90;;;;;;5037622;28;20498;-78
2022/09/08 07:51:06;;;;;;;8.82;2.60;;;15.20;99.90;;;;;;5038073;28;20057;-76
2022/09/08 07:53:52;;;;;;;13.00;2.30;;;15.20;99.90;;;;;;5038022;28;20052;-78
2022/09/08 07:56:45;;;;;;;15.02;2.10;;;15.30;99.90;;;;;;5038470;28;20052;-78
2022/09/08 07:59:47;;;;;;;14.73;2.25;;;15.30;99.90;;;;;;5038920;28;20041;-78
2022/09/08 08:02:27;;;;;;;10.57;1.88;;;15.30;99.90;;;;;;5036742;28;20049;-76
2022/09/08 08:05:14;;;;;;;11.18;2.00;;;15.30;99.90;;;;;;5021684;28;20053;-77
2022/09/08 08:08:12;;;;;;;12.05;2.15;;;15.40;99.90;;;;;;5037727;28;20379;-78
2022/09/08 08:10:45;;;;;;;13.05;2.10;;;15.40;99.90;;;;;;5037074;28;20055;-77
2022/09/08 08:13:30;;;;;;;11.75;2.22;;;15.50;99.90;;;;;;5037987;28;20054;-77
2022/09/08 08:16:08;;;;;;;13.23;1.98;;;15.60;99.90;;;;;;5037875;28;20041;-81
2022/09/08 08:18:55;;;;;;;19.45;2.28;;;15.60;99.90;;;;;;5038101;28;20041;-77
2022/09/08 08:21:39;;;;;;;15.37;2.37;;;15.60;99.90;;;;;;5036288;28;20042;-76
2022/09/08 08:24:12;;;;;;;14.45;2.40;;;15.70;99.90;;;;;;5036650;28;20052;-78
2022/09/08 08:26:55;;;;;;;14.77;2.53;;;15.80;99.90;;;;;;5035784;28;20049;-75
2022/09/08 08:29:46;;;;;;;22.27;3.25;;;15.80;99.90;;;;;;5038012;28;20065;-75
2022/09/08 08:32:40;;;;;;;18.90;1.90;;;15.90;99.90;;;;;;5037005;28;20056;-76
2022/09/08 08:35:36;;;;;;;14.32;2.38;;;15.90;99.90;;;;;;5052371;28;20448;-78
2022/09/08 08:38:12;;;;;;;15.30;2.65;;;15.90;99.90;;;;;;5037359;28;20052;-77
2022/09/08 08:40:57;;;;;;;16.10;2.75;;;16.00;99.90;;;;;;5033248;28;20052;-75
2022/09/08 08:43:43;;;;;;;13.55;2.30;;;16.10;99.90;;;;;;5001059;28;20472;-77
2022/09/08 08:46:28;;;;;;;18.38;2.40;;;16.20;99.90;;;;;;5017966;28;20389;-77
2022/09/08 08:49:38;;;;;;;12.95;2.00;;;16.20;99.90;;;;;;4999404;28;20464;-74
2022/09/08 08:52:57;;;;;;;17.27;2.42;;;16.30;99.90;;;;;;4979309;28;20054;-77
2022/09/08 08:55:44;;;;;;;18.73;3.03;;;16.40;99.90;;;;;;4983190;28;20046;-77
2022/09/08 08:58:42;;;;;;;18.53;3.13;;;16.40;99.90;;;;;;4984700;28;20049;-75
2022/09/08 09:01:52;;;;;;;18.98;2.70;;;16.50;99.90;;;;;;4999344;28;20053;-78
2022/09/08 09:04:57;;;;;;;21.45;3.05;;;16.60;99.90;;;;;;4903992;29;20056;-75
2022/09/08 09:08:01;;;;;;;19.17;2.95;;;16.70;99.90;;;;;;4997518;28;20054;-74
2022/09/08 09:10:51;;;;;;;20.88;3.58;;;16.80;99.90;;;;;;4984419;28;20046;-74
2022/09/08 09:13:25;;;;;;;26.25;3.90;;;16.90;99.90;;;;;;4999402;28;20484;-76
2022/09/08 09:15:54;;;;;;;27.85;3.95;;;17.00;99.90;;;;;;5000165;28;20056;-76
2022/09/08 09:19:14;;;;;;;33.63;4.30;;;17.00;99.90;;;;;;5016889;28;20046;-77
2022/09/08 09:22:10;;;;;;;35.35;4.93;;;17.10;99.90;;;;;;4998852;28;20350;-76
2022/09/08 09:24:58;;;;;;;31.45;4.40;;;17.20;99.90;;;;;;5016878;28;20057;-74
2022/09/08 09:27:42;;;;;;;32.25;4.68;;;17.10;99.90;;;;;;4999141;28;20477;-74
2022/09/08 09:30:31;;;;;;;28.38;4.57;;;17.20;99.90;;;;;;5016918;28;20045;-75
2022/09/08 09:33:37;;;;;;;34.75;5.15;;;17.20;99.90;;;;;;5016950;28;20361;-76
2022/09/08 09:36:15;;;;;;;32.05;4.80;;;17.20;99.90;;;;;;5016603;28;20053;-77
2022/09/08 09:38:57;;;;;;;29.27;4.85;;;17.20;99.90;;;;;;4999834;28;20453;-75
2022/09/08 09:41:52;;;;;;;30.88;4.53;;;17.20;99.90;;;;;;5009046;28;20079;-75
2022/09/08 09:44:38;;;;;;;25.95;4.80;;;17.40;99.90;;;;;;5035410;28;20046;-77
2022/09/08 09:47:13;;;;;;;32.35;4.65;;;17.40;99.90;;;;;;5035303;28;20486;-75
2022/09/08 09:49:59;;;;;;;28.63;4.57;;;17.50;99.90;;;;;;5019182;28;20049;-75
2022/09/08 09:52:56;;;;;;;23.85;4.00;;;17.70;99.90;;;;;;5035935;28;20060;-76
2022/09/08 09:56:16;;;;;;;22.73;3.80;;;17.80;99.90;;;;;;5033485;28;20053;-75
2022/09/08 09:59:03;;;;;;;20.55;3.40;;;18.10;99.90;;;;;;5034545;28;20380;-76
2022/09/08 10:01:49;;;;;;;21.52;4.00;;;18.30;99.90;;;;;;5034397;28;20042;-79
2022/09/08 10:04:43;;;;;;;26.20;4.20;;;18.40;99.90;;;;;;5018412;28;20050;-78
2022/09/08 10:07:23;;;;;;;23.75;4.05;;;18.50;99.90;;;;;;5034029;28;20060;-77
2022/09/08 10:09:50;;;;;;;20.17;4.25;;;18.70;99.90;;;;;;5035734;28;20476;-77
2022/09/08 10:12:52;;;;;;;22.98;4.70;;;20.10;99.90;;;;;;5035326;28;20057;-77
2022/09/08 10:15:58;;;;;;;28.92;4.95;;;19.10;99.90;;;;;;5033564;28;20045;-74
2022/09/08 10:18:26;;;;;;;28.35;4.95;;;19.40;99.90;;;;;;5047062;28;20064;-75
2022/09/08 10:21:07;;;;;;;32.03;5.15;;;19.60;99.90;;;;;;5034312;28;20465;-76
2022/09/08 10:23:47;;;;;;;30.45;5.15;;;19.70;99.90;;;;;;5018303;28;20056;-76
2022/09/08 10:27:06;;;;;;;29.27;5.28;;;19.80;99.90;;;;;;5035134;28;20060;-76
2022/09/08 10:29:55;;;;;;;23.33;4.50;;;19.80;99.90;;;;;;4996250;28;20057;-77
2022/09/08 10:32:44;;;;;;;28.67;5.00;;;20.00;99.90;;;;;;5034382;28;20472;-77
2022/09/08 10:35:30;;;;;;;28.90;5.57;;;20.10;99.90;;;;;;5034233;28;20345;-76
2022/09/08 10:38:19;;;;;;;26.67;4.65;;;21.40;99.90;;;;;;5035255;28;20049;-76
2022/09/08 10:40:56;;;;;;;27.83;4.80;;;20.30;99.90;;;;;;5031960;28;20045;-77
2022/09/08 10:43:37;;;;;;;33.17;5.18;;;20.20;99.90;;;;;;4993737;28;20119;-76
2022/09/08 10:46:23;;;;;;;34.10;5.25;;;20.10;99.90;;;;;;5012041;28;20049;-75
2022/09/08 10:53:33;;;;;;;14.07;2.65;;;19.70;99.90;;;;;;4946620;28;20348;-78
2022/09/08 10:56:11;;;;;;;77.60;5.30;;;19.00;99.90;;;;;;4998091;28;20376;-77
2022/09/08 10:59:11;;;;;;;7.60;1.30;;;18.40;99.90;;;;;;5015194;28;20056;-77
2022/09/08 11:02:09;;;;;;;11.63;1.25;;;17.40;99.90;;;;;;5000084;28;20041;-80
2022/09/08 11:04:58;;;;;;;5.90;0.98;;;16.60;99.90;;;;;;4998690;28;20054;-75
2022/09/08 11:07:32;;;;;;;6.85;1.33;;;16.00;99.90;;;;;;5014147;28;20048;-81
2022/09/08 11:10:22;;;;;;;8.57;1.20;;;15.60;99.90;;;;;;5015332;28;20050;-82
2022/09/08 11:13:18;;;;;;;5.63;0.75;;;15.40;99.90;;;;;;4998337;28;20053;-80
2022/09/08 11:16:07;;;;;;;5.90;1.30;;;15.30;99.90;;;;;;5020076;28;20373;-79
2022/09/08 11:18:41;;;;;;;8.73;1.15;;;13.90;99.90;;;;;;5015350;28;20042;-81
2022/09/08 11:21:23;;;;;;;9.32;1.30;;;15.10;99.90;;;;;;4997343;28;20042;-79
2022/09/08 11:24:18;;;;;;;13.93;1.55;;;15.30;99.90;;;;;;5015605;28;20041;-79
2022/09/08 11:27:31;;;;;;;10.00;1.33;;;15.00;99.90;;;;;;5014140;28;20464;-77
2022/09/08 11:30:20;;;;;;;14.15;1.70;;;15.00;99.90;;;;;;5008913;28;20061;-76
2022/09/08 11:33:00;;;;;;;12.80;1.88;;;14.90;99.90;;;;;;4997700;28;20050;-76
2022/09/08 11:35:53;;;;;;;11.48;1.70;;;14.90;99.90;;;;;;5013715;28;20057;-83
2022/09/08 11:44:15;;;;;;;16.52;2.30;;;14.30;99.90;;;;;;4926012;28;20047;-80
2022/09/08 11:47:55;;;;;;;19.02;2.30;;;14.60;99.90;;;;;;5026398;28;20376;-72
2022/09/08 11:50:40;;;;;;;22.25;3.25;;;15.30;99.90;;;;;;5032742;28;20050;-73
2022/09/08 11:53:30;;;;;;;19.60;2.85;;;15.30;99.90;;;;;;5034447;28;20053;-73
2022/09/08 11:56:43;;;;;;;15.98;3.30;;;15.40;99.90;;;;;;5044982;28;20048;-73
2022/09/08 11:59:43;;;;;;;21.27;3.70;;;15.40;99.90;;;;;;5053940;28;20044;-73
2022/09/08 12:03:02;;;;;;;17.75;3.88;;;15.40;99.90;;;;;;5035811;28;20467;-73
2022/09/08 12:06:07;;;;;;;21.02;3.65;;;15.40;99.90;;;;;;4997116;28;20045;-74
2022/09/08 12:09:13;;;;;;;16.92;3.15;;;15.60;99.90;;;;;;5053028;28;20041;-73
2022/09/08 12:11:56;;;;;;;17.30;3.28;;;15.70;99.90;;;;;;5053650;28;20052;-74
2022/09/08 12:14:27;;;;;;;20.48;3.38;;;15.90;99.90;;;;;;5032284;28;20042;-74
2022/09/08 12:17:23;;;;;;;25.85;3.55;;;16.00;99.90;;;;;;5042363;28;20042;-73
2022/09/08 12:20:25;;;;;;;17.52;3.20;;;16.10;99.90;;;;;;5043411;28;20037;-73
2022/09/08 12:23:14;;;;;;;14.60;2.67;;;16.30;99.90;;;;;;5045855;28;20052;-74
2022/09/08 12:26:03;;;;;;;13.48;2.35;;;16.40;99.90;;;;;;5030269;28;20048;-73
2022/09/08 12:29:13;;;;;;;15.18;2.60;;;16.50;99.90;;;;;;5046671;28;20052;-73
2022/09/08 12:31:50;;;;;;;18.83;2.92;;;16.60;99.90;;;;;;5027742;28;20052;-72
2022/09/08 12:34:36;;;;;;;18.00;3.00;;;16.80;99.90;;;;;;5041633;28;20124;-73
2022/09/08 12:37:46;;;;;;;16.65;2.95;;;16.90;99.90;;;;;;5038722;28;20041;-81
2022/09/08 12:44:56;;;;;;;16.55;2.53;;;17.20;99.90;;;;;;4938344;29;20475;-82
2022/09/08 12:47:49;;;;;;;13.15;2.15;;;18.20;99.90;;;;;;4945479;28;20494;-75
2022/09/08 12:50:54;;;;;;;12.98;2.30;;;17.40;99.90;;;;;;5020230;28;20049;-74
2022/09/08 12:53:31;;;;;;;15.50;2.80;;;17.40;99.90;;;;;;5036116;28;20060;-75
2022/09/08 12:56:04;;;;;;;18.58;3.00;;;17.40;99.90;;;;;;5037332;28;20049;-73
2022/09/08 12:59:21;;;;;;;;;;;;;;;;;;;;;
2022/09/08 13:17:42;;;;;;;21.17;3.95;;;18.20;99.90;;;;;;4841959;29;20052;-75
2022/09/08 13:20:37;;;;;;;28.63;4.30;;;18.50;99.90;;;;;;4955898;29;20073;-73
2022/09/08 13:23:26;;;;;;;35.17;4.68;;;18.80;99.90;;;;;;4970855;28;20058;-72
2022/09/08 13:26:04;;;;;;;24.63;4.82;;;19.00;99.90;;;;;;4976351;28;20059;-78
2022/09/08 13:28:57;;;;;;;24.70;4.28;;;20.40;99.90;;;;;;4975064;28;20047;-77
2022/09/08 13:32:10;;;;;;;21.33;3.97;;;19.40;99.90;;;;;;4984500;28;20473;-81
2022/09/08 13:34:51;;;;;;;29.27;4.07;;;19.50;99.90;;;;;;4994322;28;20050;-73
2022/09/08 13:37:37;;;;;;;26.45;4.55;;;19.70;99.90;;;;;;4995611;28;20127;-74
2022/09/08 13:40:42;;;;;;;29.90;4.45;;;19.90;99.90;;;;;;4994503;28;20057;-84
2022/09/08 13:43:33;;;;;;;29.20;4.00;;;20.10;99.90;;;;;;4994687;28;20049;-74
2022/09/08 13:46:35;;;;;;;22.38;3.80;;;20.10;99.90;;;;;;5019073;28;20052;-78
2022/09/08 13:49:18;;;;;;;25.30;4.47;;;20.30;99.90;;;;;;5004077;28;20044;-78
2022/09/08 13:52:23;;;;;;;27.75;4.07;;;20.20;99.90;;;;;;5030143;28;20034;-74
2022/09/08 13:55:30;;;;;;;27.40;4.40;;;20.20;99.90;;;;;;4998278;28;20061;-80
2022/09/08 13:58:04;;;;;;;27.63;5.03;;;20.00;99.90;;;;;;5000389;28;20445;-78
2022/09/08 14:00:59;;;;;;;23.42;3.92;;;20.10;99.90;;;;;;5009598;28;20046;-78
2022/09/08 14:03:33;;;;;;;25.13;4.45;;;20.50;99.90;;;;;;5015033;28;20492;-76
2022/09/08 14:06:11;;;;;;;21.48;4.18;;;20.70;99.90;;;;;;5001682;28;20053;-74
2022/09/08 14:08:58;;;;;;;22.60;4.30;;;20.60;99.90;;;;;;5015188;28;20050;-74
2022/09/08 14:12:20;;;;;;;32.95;4.47;;;20.20;99.90;;;;;;4999569;28;20042;-73
2022/09/08 14:14:50;;;;;;;27.65;4.50;;;19.90;99.90;;;;;;4955203;29;20059;-73
2022/09/08 14:17:24;;;;;;;29.45;4.80;;;19.50;99.90;;;;;;5004697;28;20057;-74
2022/09/08 14:20:20;;;;;;;32.40;4.75;;;19.40;99.90;;;;;;5016272;28;20038;-73
2022/09/08 14:22:57;;;;;;;33.95;4.97;;;19.20;99.90;;;;;;5015801;28;20049;-73
2022/09/08 14:25:36;;;;;;;31.53;4.17;;;19.20;99.90;;;;;;4998767;28;20053;-73
2022/09/08 14:28:18;;;;;;;20.40;3.63;;;19.10;99.90;;;;;;5014629;28;20057;-73
2022/09/08 14:31:10;;;;;;;22.98;3.97;;;19.10;99.90;;;;;;5015865;28;20042;-73
2022/09/08 14:33:46;;;;;;;20.10;4.00;;;19.40;99.90;;;;;;4997553;28;20057;-75
2022/09/08 14:36:25;;;;;;;20.92;3.38;;;19.90;99.90;;;;;;4998789;28;20054;-74
2022/09/08 14:39:26;;;;;;;20.42;3.78;;;20.40;99.90;;;;;;5015706;28;20052;-74
2022/09/08 14:41:57;;;;;;;22.80;3.80;;;20.70;99.90;;;;;;5014026;28;20042;-75
2022/09/08 14:45:02;;;;;;;22.80;3.83;;;20.70;99.90;;;;;;5024338;28;20037;-75